createdAt,value
2023-05-06T00:00:41.131Z,9.99
2023-05-06T00:03:26.968Z,9.94
2023-05-06T00:06:12.350Z,9.90
2023-05-06T00:08:57.596Z,9.80
2023-05-06T00:11:42.929Z,9.73
2023-05-06T00:14:28.241Z,9.71
2023-05-06T00:17:13.474Z,9.66
2023-05-06T00:19:58.804Z,9.57
2023-05-06T00:22:44.263Z,9.54
2023-05-06T00:25:29.649Z,9.45
2023-05-06T00:28:14.911Z,9.39
2023-05-06T00:31:00.742Z,9.37
2023-05-06T00:33:46.205Z,9.38
2023-05-06T00:36:31.717Z,9.34
2023-05-06T00:39:17.044Z,9.25
2023-05-06T00:42:02.643Z,9.18
2023-05-06T00:44:48.174Z,9.17
2023-05-06T00:47:33.820Z,9.24
2023-05-06T00:50:19.745Z,9.23
2023-05-06T00:53:05.930Z,9.19
2023-05-06T00:55:51.587Z,9.20
2023-05-06T00:58:37.748Z,9.23
2023-05-06T01:01:24.043Z,9.22
2023-05-06T01:04:10.296Z,9.25
2023-05-06T01:07:01.526Z,9.21
2023-05-06T01:10:08.436Z,9.18
2023-05-06T01:13:40.972Z,9.14
2023-05-06T01:16:29.632Z,9.21
2023-05-06T01:19:34.954Z,9.32
2023-05-06T01:22:21.262Z,9.41
2023-05-06T01:25:07.291Z,9.50
2023-05-06T01:27:52.770Z,9.57
2023-05-06T01:31:01.058Z,9.62
2023-05-06T01:34:08.331Z,9.64
2023-05-06T01:37:04.133Z,9.72
2023-05-06T01:39:50.435Z,9.82
2023-05-06T01:42:37.452Z,9.88
2023-05-06T01:45:27.722Z,9.85
2023-05-06T01:48:13.578Z,9.84
2023-05-06T01:50:59.333Z,9.78
2023-05-06T01:53:44.894Z,9.74
2023-05-06T01:56:30.427Z,9.64
2023-05-06T01:59:15.819Z,9.54
2023-05-06T02:02:01.215Z,9.39
2023-05-06T02:04:46.580Z,9.29
2023-05-06T02:07:31.860Z,9.20
2023-05-06T02:10:17.938Z,9.07
2023-05-06T02:13:08.437Z,8.98
2023-05-06T02:15:54.956Z,8.96
2023-05-06T02:18:41.597Z,8.92
2023-05-06T02:21:28.395Z,8.86
2023-05-06T02:24:13.555Z,8.79
2023-05-06T02:26:59.098Z,8.70
2023-05-06T02:29:44.886Z,8.62
2023-05-06T02:32:30.700Z,8.62
2023-05-06T02:35:16.153Z,8.59
2023-05-06T02:38:01.853Z,8.56
2023-05-06T02:40:47.328Z,8.56
2023-05-06T02:43:32.778Z,8.58
2023-05-06T02:46:18.199Z,8.61
2023-05-06T02:49:04.095Z,8.66
2023-05-06T02:51:49.358Z,8.71
2023-05-06T02:54:34.952Z,8.72
2023-05-06T02:57:20.504Z,8.73
2023-05-06T03:00:06.871Z,8.77
2023-05-06T03:02:52.415Z,8.75
2023-05-06T03:05:37.655Z,8.68
2023-05-06T03:08:23.118Z,8.62
2023-05-06T03:11:09.427Z,8.54
2023-05-06T03:13:54.822Z,8.48
2023-05-06T03:16:40.285Z,8.42
2023-05-06T03:19:26.026Z,8.43
2023-05-06T03:22:11.998Z,8.40
2023-05-06T03:25:01.452Z,8.42
2023-05-06T03:27:48.841Z,8.40
2023-05-06T03:30:38.393Z,8.37
2023-05-06T03:33:26.164Z,8.37
2023-05-06T03:36:14.138Z,8.34
2023-05-06T03:39:01.999Z,8.33
2023-05-06T03:41:50.439Z,8.34
2023-05-06T03:44:36.749Z,8.33
2023-05-06T03:47:22.475Z,8.29
2023-05-06T03:50:08.695Z,8.24
2023-05-06T03:52:55.794Z,8.28
2023-05-06T03:55:44.688Z,8.35
2023-05-06T03:58:31.634Z,8.41
2023-05-06T04:01:18.352Z,8.44
2023-05-06T04:04:03.913Z,8.44
2023-05-06T04:06:49.763Z,8.46
2023-05-06T04:09:35.094Z,8.48
2023-05-06T04:12:25.238Z,8.42
2023-05-06T04:15:12.062Z,8.34
2023-05-06T04:17:58.713Z,8.26
2023-05-06T04:20:48.302Z,8.19
2023-05-06T04:23:33.859Z,8.20
2023-05-06T04:26:19.578Z,8.23
2023-05-06T04:29:07.056Z,8.24
2023-05-06T04:31:58.456Z,8.24
2023-05-06T04:34:47.450Z,8.25
2023-05-06T04:37:34.550Z,8.28
2023-05-06T04:40:30.831Z,8.28
2023-05-06T04:43:16.568Z,8.27
2023-05-06T04:46:03.399Z,8.28
2023-05-06T04:48:51.725Z,8.34
2023-05-06T04:51:37.959Z,8.39
2023-05-06T04:54:24.487Z,8.43
2023-05-06T04:57:09.699Z,8.38
2023-05-06T04:59:56.003Z,8.34
2023-05-06T05:02:41.374Z,8.38
2023-05-06T05:05:28.529Z,8.33
2023-05-06T05:08:15.219Z,8.33
2023-05-06T05:11:00.703Z,8.31
2023-05-06T05:13:48.089Z,8.31
2023-05-06T05:16:33.450Z,8.36
2023-05-06T05:19:21.526Z,8.38
2023-05-06T05:22:07.579Z,8.42
2023-05-06T05:24:52.940Z,8.44
2023-05-06T05:27:38.259Z,8.54
2023-05-06T05:30:23.522Z,8.65
2023-05-06T05:33:09.627Z,8.74
2023-05-06T05:35:56.130Z,8.86
2023-05-06T05:38:41.955Z,8.98
2023-05-06T05:41:28.428Z,9.10
2023-05-06T05:44:14.400Z,9.22
2023-05-06T05:47:00.709Z,9.34
2023-05-06T05:49:47.163Z,9.47
2023-05-06T05:52:33.086Z,9.59
2023-05-06T05:55:19.092Z,9.71
2023-05-06T05:58:06.457Z,9.85
2023-05-06T06:00:52.987Z,9.97
2023-05-06T06:03:39.422Z,10.09
2023-05-06T06:06:25.148Z,10.22
2023-05-06T06:09:11.344Z,10.33
2023-05-06T06:11:57.988Z,10.42
2023-05-06T06:14:48.362Z,10.52
2023-05-06T06:17:37.229Z,10.63
2023-05-06T06:20:25.498Z,10.73
2023-05-06T06:23:11.835Z,10.84
2023-05-06T06:25:57.328Z,10.93
2023-05-06T06:28:44.747Z,11.02
2023-05-06T06:31:30.220Z,11.11
2023-05-06T06:34:15.637Z,11.19
2023-05-06T06:37:01.275Z,11.27
2023-05-06T06:39:46.704Z,11.36
2023-05-06T06:42:32.812Z,11.46
2023-05-06T06:45:27.073Z,11.55
2023-05-06T06:48:12.541Z,11.63
2023-05-06T06:50:58.252Z,11.68
2023-05-06T06:53:43.523Z,11.75
2023-05-06T06:56:28.964Z,11.82
2023-05-06T06:59:14.457Z,11.89
2023-05-06T07:02:00.197Z,11.94
2023-05-06T07:04:45.706Z,12.03
2023-05-06T07:07:31.334Z,12.11
2023-05-06T07:10:16.833Z,12.18
2023-05-06T07:13:02.209Z,12.26
2023-05-06T07:15:47.491Z,12.32
2023-05-06T07:18:32.873Z,12.44
2023-05-06T07:21:18.120Z,12.51
2023-05-06T07:24:03.689Z,12.57
2023-05-06T07:26:49.739Z,12.61
2023-05-06T07:29:36.813Z,12.66
2023-05-06T07:32:22.442Z,12.71
2023-05-06T07:35:08.956Z,12.77
2023-05-06T07:37:54.744Z,12.82
2023-05-06T07:40:40.104Z,12.91
2023-05-06T07:43:25.603Z,12.97
2023-05-06T07:46:11.440Z,13.06
2023-05-06T07:48:56.736Z,13.14
2023-05-06T07:51:43.022Z,13.17
2023-05-06T07:54:28.985Z,13.18
2023-05-06T07:57:15.954Z,13.19
2023-05-06T08:00:01.813Z,13.21
2023-05-06T08:02:48.174Z,13.24
2023-05-06T08:05:34.063Z,13.31
2023-05-06T08:08:20.086Z,13.38
2023-05-06T08:11:05.385Z,13.43
2023-05-06T08:13:50.842Z,13.53
2023-05-06T08:16:36.350Z,13.63
2023-05-06T08:19:23.391Z,13.72
2023-05-06T08:22:08.853Z,13.80
2023-05-06T08:24:55.174Z,13.84
2023-05-06T08:27:40.953Z,13.89
2023-05-06T08:30:26.297Z,13.97
2023-05-06T08:33:11.941Z,13.98
2023-05-06T08:35:58.817Z,13.97
2023-05-06T08:38:50.611Z,13.97
2023-05-06T08:41:39.886Z,14.00
2023-05-06T08:44:25.907Z,14.04
2023-05-06T08:47:12.093Z,14.07
2023-05-06T08:49:57.328Z,14.07
2023-05-06T08:52:42.543Z,14.12
2023-05-06T08:55:29.632Z,14.12
2023-05-06T08:58:17.160Z,14.13
2023-05-06T09:01:04.078Z,14.12
2023-05-06T09:03:51.316Z,14.21
2023-05-06T09:06:36.660Z,14.31
2023-05-06T09:09:21.985Z,14.39
2023-05-06T09:12:12.321Z,14.47
2023-05-06T09:14:57.756Z,14.44
2023-05-06T09:17:43.925Z,14.48
2023-05-06T09:20:32.984Z,14.52
2023-05-06T09:23:18.724Z,14.50
2023-05-06T09:26:04.132Z,14.50
2023-05-06T09:28:51.247Z,14.54
2023-05-06T09:31:45.828Z,14.49
2023-05-06T09:34:33.720Z,14.46
2023-05-06T09:37:21.044Z,14.40
2023-05-06T09:40:07.259Z,14.39
2023-05-06T09:42:52.796Z,14.39
2023-05-06T09:45:38.015Z,14.38
2023-05-06T09:48:23.907Z,14.37
2023-05-06T09:51:09.601Z,14.37
2023-05-06T09:53:56.838Z,14.33
2023-05-06T09:56:44.341Z,14.29
2023-05-06T09:59:30.808Z,14.32
2023-05-06T10:02:17.177Z,14.30
2023-05-06T10:05:06.186Z,14.36
2023-05-06T10:07:53.579Z,14.40
2023-05-06T10:10:42.285Z,14.47
2023-05-06T10:13:27.909Z,14.60
2023-05-06T10:16:15.934Z,14.72
2023-05-06T10:19:03.959Z,14.92
2023-05-06T10:21:54.505Z,15.16
2023-05-06T10:25:00.636Z,15.46
2023-05-06T10:27:46.872Z,15.57
2023-05-06T10:30:38.006Z,15.65
2023-05-06T10:33:26.021Z,15.77
2023-05-06T10:36:20.531Z,15.84
2023-05-06T10:39:10.311Z,15.82
2023-05-06T10:41:56.923Z,15.91
2023-05-06T10:45:04.124Z,15.99
2023-05-06T10:47:56.289Z,16.12
2023-05-06T10:50:41.961Z,16.26
2023-05-06T10:53:56.459Z,16.40
2023-05-06T10:56:51.185Z,16.40
2023-05-06T10:59:36.461Z,16.34
2023-05-06T11:02:22.102Z,16.23
2023-05-06T11:05:07.722Z,16.11
2023-05-06T11:07:53.429Z,15.96
2023-05-06T11:10:39.045Z,15.79
2023-05-06T11:13:30.009Z,15.61
2023-05-06T11:16:48.653Z,15.44
2023-05-06T11:19:36.461Z,15.33
2023-05-06T11:22:40.246Z,15.31
2023-05-06T11:25:45.047Z,15.26
2023-05-06T11:28:30.784Z,15.28
2023-05-06T11:31:16.964Z,15.24
2023-05-06T11:34:08.792Z,15.25
2023-05-06T11:37:06.043Z,15.36
2023-05-06T11:39:51.950Z,15.56
2023-05-06T11:42:37.457Z,15.73
2023-05-06T11:45:22.962Z,16.04
2023-05-06T11:48:17.755Z,16.39
2023-05-06T11:51:04.059Z,16.57
2023-05-06T11:53:49.523Z,16.73
2023-05-06T11:56:51.899Z,16.81
2023-05-06T11:59:39.520Z,16.84
2023-05-06T12:02:25.074Z,16.81
2023-05-06T12:05:10.702Z,16.86
2023-05-06T12:07:56.321Z,16.91
2023-05-06T12:10:42.470Z,16.91
2023-05-06T12:13:29.253Z,16.81
2023-05-06T12:16:15.724Z,16.84
2023-05-06T12:19:02.452Z,16.83
2023-05-06T12:21:48.077Z,16.87
2023-05-06T12:24:33.566Z,16.96
2023-05-06T12:27:36.258Z,17.05
2023-05-06T12:30:32.009Z,17.29
2023-05-06T12:33:17.624Z,17.57
2023-05-06T12:36:07.451Z,17.66
2023-05-06T12:38:55.570Z,17.58
2023-05-06T12:41:45.780Z,17.57
2023-05-06T12:44:32.738Z,17.55
2023-05-06T12:47:26.203Z,17.44
2023-05-06T12:50:12.329Z,17.45
2023-05-06T12:52:58.036Z,17.76
2023-05-06T12:55:45.314Z,17.76
2023-05-06T12:58:37.381Z,17.80
2023-05-06T13:01:23.228Z,17.91
2023-05-06T13:04:08.663Z,17.84
2023-05-06T13:06:54.720Z,17.55
2023-05-06T13:09:40.601Z,17.58
2023-05-06T13:12:26.033Z,18.11
2023-05-06T13:15:11.706Z,18.71
2023-05-06T13:17:57.518Z,19.10
2023-05-06T13:20:43.178Z,19.39
2023-05-06T13:23:28.643Z,19.77
2023-05-06T13:26:15.214Z,19.94
2023-05-06T13:29:00.662Z,20.08
2023-05-06T13:31:46.448Z,20.12
2023-05-06T13:34:31.926Z,20.03
2023-05-06T13:37:17.528Z,19.85
2023-05-06T13:40:03.512Z,19.23
2023-05-06T13:42:48.792Z,18.23
2023-05-06T13:45:34.182Z,17.57
2023-05-06T13:48:19.454Z,17.07
2023-05-06T13:51:05.150Z,16.83
2023-05-06T13:53:51.911Z,16.64
2023-05-06T13:56:37.700Z,16.56
2023-05-06T13:59:23.334Z,16.47
2023-05-06T14:02:09.755Z,16.38
2023-05-06T14:04:55.684Z,16.36
2023-05-06T14:07:41.486Z,16.36
2023-05-06T14:10:27.028Z,16.40
2023-05-06T14:13:12.645Z,16.67
2023-05-06T14:15:58.149Z,17.04
2023-05-06T14:18:43.700Z,17.38
2023-05-06T14:21:29.049Z,17.82
2023-05-06T14:24:14.934Z,18.47
2023-05-06T14:27:00.589Z,19.03
2023-05-06T14:29:46.323Z,19.40
2023-05-06T14:32:32.907Z,19.86
2023-05-06T14:35:18.361Z,20.50
2023-05-06T14:38:03.855Z,20.88
2023-05-06T14:40:50.674Z,21.30
2023-05-06T14:43:36.236Z,21.48
2023-05-06T14:46:21.797Z,21.61
2023-05-06T14:49:07.447Z,21.52
2023-05-06T14:51:52.774Z,21.37
2023-05-06T14:54:42.459Z,21.05
2023-05-06T14:57:28.138Z,20.30
2023-05-06T15:00:14.921Z,19.75
2023-05-06T15:03:00.522Z,19.25
2023-05-06T15:05:46.652Z,19.05
2023-05-06T15:08:32.086Z,19.49
2023-05-06T15:11:17.611Z,20.16
2023-05-06T15:14:02.860Z,20.39
2023-05-06T15:16:48.470Z,20.03
2023-05-06T15:19:34.230Z,19.38
2023-05-06T15:22:19.848Z,18.76
2023-05-06T15:25:05.759Z,18.49
2023-05-06T15:27:51.087Z,18.31
2023-05-06T15:30:37.995Z,18.14
2023-05-06T15:33:23.785Z,18.19
2023-05-06T15:36:09.116Z,18.00
2023-05-06T15:39:00.862Z,17.66
2023-05-06T15:41:47.967Z,17.35
2023-05-06T15:44:34.092Z,17.08
2023-05-06T15:47:19.712Z,16.84
2023-05-06T15:50:16.500Z,16.63
2023-05-06T15:53:06.464Z,16.48
2023-05-06T15:55:56.587Z,16.30
2023-05-06T15:58:43.914Z,16.14
2023-05-06T16:01:53.929Z,16.03
2023-05-06T16:04:35.054Z,15.93
2023-05-06T16:07:20.769Z,15.71
2023-05-06T16:10:06.895Z,15.58
2023-05-06T16:12:52.377Z,15.54
2023-05-06T16:15:37.711Z,15.52
2023-05-06T16:18:23.138Z,15.41
2023-05-06T16:21:08.770Z,15.43
2023-05-06T16:23:54.418Z,15.44
2023-05-06T16:26:40.209Z,15.50
2023-05-06T16:29:25.666Z,16.08
2023-05-06T16:32:11.807Z,17.10
2023-05-06T16:34:57.221Z,17.92
2023-05-06T16:37:44.587Z,18.27
2023-05-06T16:40:31.188Z,18.51
2023-05-06T16:43:18.795Z,18.31
2023-05-06T16:46:04.093Z,17.83
2023-05-06T16:48:49.413Z,17.25
2023-05-06T16:51:34.759Z,16.79
2023-05-06T16:54:20.114Z,16.49
2023-05-06T16:57:05.811Z,16.21
2023-05-06T16:59:51.110Z,15.97
2023-05-06T17:02:36.645Z,15.71
2023-05-06T17:05:22.635Z,15.45
2023-05-06T17:08:08.483Z,15.25
2023-05-06T17:10:54.097Z,15.14
2023-05-06T17:13:39.500Z,15.07
2023-05-06T17:16:24.898Z,15.01
2023-05-06T17:19:11.963Z,14.98
2023-05-06T17:21:58.022Z,14.91
2023-05-06T17:24:43.761Z,14.89
2023-05-06T17:27:29.449Z,14.90
2023-05-06T17:30:15.223Z,14.90
2023-05-06T17:33:00.895Z,14.92
2023-05-06T17:35:46.589Z,15.00
2023-05-06T17:38:31.846Z,15.05
2023-05-06T17:41:17.281Z,15.11
2023-05-06T17:44:02.507Z,15.15
2023-05-06T17:46:48.231Z,15.18
2023-05-06T17:49:34.470Z,15.16
2023-05-06T17:52:20.493Z,15.21
2023-05-06T17:57:56.466Z,15.25
2023-05-06T18:00:42.188Z,15.25
2023-05-06T18:03:27.856Z,15.18
2023-05-06T18:06:13.525Z,15.17
2023-05-06T18:08:58.856Z,15.17
2023-05-06T18:11:44.374Z,15.24
2023-05-06T18:14:29.991Z,15.26
2023-05-06T18:17:15.541Z,15.29
2023-05-06T18:20:01.115Z,15.28
2023-05-06T18:22:46.524Z,15.21
2023-05-06T18:25:32.046Z,15.17
2023-05-06T18:28:17.446Z,15.14
2023-05-06T18:31:02.962Z,14.98
2023-05-06T18:33:48.458Z,14.86
2023-05-06T18:36:35.125Z,14.76
2023-05-06T18:39:23.156Z,14.68
2023-05-06T18:42:08.775Z,14.62
2023-05-06T18:44:54.464Z,14.53
2023-05-06T18:47:40.404Z,14.42
2023-05-06T18:50:25.814Z,14.32
2023-05-06T18:53:11.804Z,14.23
2023-05-06T18:55:57.405Z,14.18
2023-05-06T18:58:42.781Z,14.14
2023-05-06T19:01:28.319Z,14.10
2023-05-06T19:04:14.191Z,14.03
2023-05-06T19:07:00.019Z,13.98
2023-05-06T19:09:45.551Z,13.93
2023-05-06T19:12:31.292Z,13.87
2023-05-06T19:15:19.115Z,13.75
2023-05-06T19:18:05.124Z,13.63
2023-05-06T19:20:52.394Z,13.63
2023-05-06T19:23:38.534Z,13.60
2023-05-06T19:26:23.965Z,13.55
2023-05-06T19:29:09.316Z,13.53
2023-05-06T19:31:55.069Z,13.51
2023-05-06T19:34:40.674Z,13.52
2023-05-06T19:37:30.263Z,13.52
2023-05-06T19:40:15.655Z,13.52
2023-05-06T19:43:03.995Z,13.50
2023-05-06T19:45:49.340Z,13.49
2023-05-06T19:48:36.806Z,13.51
2023-05-06T19:51:22.526Z,13.54
2023-05-06T19:54:07.980Z,13.52
2023-05-06T19:56:53.253Z,13.51
2023-05-06T19:59:38.679Z,13.46
2023-05-06T20:02:24.468Z,13.46
2023-05-06T20:05:10.667Z,13.41
2023-05-06T20:07:56.784Z,13.37
2023-05-06T20:10:42.101Z,13.28
2023-05-06T20:13:27.491Z,13.23
2023-05-06T20:16:13.283Z,13.18
2023-05-06T20:18:59.170Z,13.13
2023-05-06T20:21:44.454Z,13.07
2023-05-06T20:24:29.857Z,13.03
2023-05-06T20:27:15.144Z,12.99
2023-05-06T20:30:00.909Z,12.99
2023-05-06T20:32:46.786Z,12.96
2023-05-06T20:35:38.131Z,12.92
2023-05-06T20:38:24.262Z,12.88
2023-05-06T20:41:09.582Z,12.85
2023-05-06T20:43:57.254Z,12.79
2023-05-06T20:46:42.923Z,12.70
2023-05-06T20:49:28.954Z,12.59
2023-05-06T20:52:14.814Z,12.42
2023-05-06T20:55:00.619Z,12.24
2023-05-06T20:57:45.974Z,12.04
2023-05-06T21:00:31.360Z,11.86
2023-05-06T21:03:16.788Z,11.72
2023-05-06T21:06:02.562Z,11.62
2023-05-06T21:08:48.108Z,11.53
2023-05-06T21:11:33.305Z,11.40
2023-05-06T21:14:19.054Z,11.28
2023-05-06T21:17:04.910Z,11.15
2023-05-06T21:19:52.480Z,11.02
2023-05-06T21:22:38.174Z,10.99
2023-05-06T21:25:23.727Z,10.92
2023-05-06T21:28:09.338Z,10.88
2023-05-06T21:30:54.763Z,10.88
2023-05-06T21:33:40.604Z,10.84
2023-05-06T21:36:26.280Z,10.81
2023-05-06T21:39:14.098Z,10.76
2023-05-06T21:41:59.750Z,10.76
2023-05-06T21:44:45.183Z,10.67
2023-05-06T21:47:30.459Z,10.60
2023-05-06T21:50:15.804Z,10.62
2023-05-06T21:53:01.310Z,10.63
2023-05-06T21:55:46.703Z,10.62
2023-05-06T21:58:32.165Z,10.57
2023-05-06T22:01:17.907Z,10.60
2023-05-06T22:04:09.350Z,10.67
2023-05-06T22:06:54.996Z,10.69
2023-05-06T22:09:40.393Z,10.70
2023-05-06T22:12:25.971Z,10.70
2023-05-06T22:15:13.487Z,10.68
2023-05-06T22:17:59.358Z,10.61
2023-05-06T22:20:46.625Z,10.56
2023-05-06T22:23:32.071Z,10.57
2023-05-06T22:26:17.346Z,10.60
2023-05-06T22:29:02.773Z,10.58
2023-05-06T22:31:48.069Z,10.67
2023-05-06T22:34:33.244Z,10.74
2023-05-06T22:37:18.609Z,10.86
2023-05-06T22:40:04.484Z,11.01
2023-05-06T22:42:49.792Z,11.11
2023-05-06T22:45:35.170Z,11.21
2023-05-06T22:48:22.103Z,11.31
2023-05-06T22:51:07.940Z,11.40
2023-05-06T22:53:53.407Z,11.42
2023-05-06T22:56:38.920Z,11.48
2023-05-06T22:59:24.212Z,11.52
2023-05-06T23:02:09.570Z,11.53
2023-05-06T23:04:55.165Z,11.56
2023-05-06T23:07:40.632Z,11.56
2023-05-06T23:10:26.927Z,11.55
2023-05-06T23:13:12.668Z,11.55
2023-05-06T23:15:58.341Z,11.50
2023-05-06T23:18:44.127Z,11.46
2023-05-06T23:21:29.495Z,11.42
2023-05-06T23:24:14.963Z,11.42
2023-05-06T23:27:00.249Z,11.40
2023-05-06T23:29:45.526Z,11.43
2023-05-06T23:32:30.999Z,11.47
2023-05-06T23:35:16.869Z,11.51
2023-05-06T23:38:02.333Z,11.54
2023-05-06T23:40:47.518Z,11.57
2023-05-06T23:43:32.919Z,11.57
2023-05-06T23:46:18.367Z,11.58
2023-05-06T23:49:04.175Z,11.63
2023-05-06T23:51:51.556Z,11.67
2023-05-06T23:54:37.424Z,11.68
2023-05-06T23:57:22.992Z,11.68
